sensor_id;sensor_type;location;lat;lon;timestamp;P1;durP1;ratioP1;P2;durP2;ratioP2
355;SDS011;62514;48.112;11.566;2024-03-07T00:01:03;332.97;;;67.77;;
355;SDS011;62514;48.112;11.566;2024-03-07T00:03:29;327.67;;;65.23;;
355;SDS011;62514;48.112;11.566;2024-03-07T00:05:55;325.40;;;63.93;;
355;SDS011;62514;48.112;11.566;2024-03-07T00:08:22;334.37;;;68.13;;
355;SDS011;62514;48.112;11.566;2024-03-07T00:10:48;339.83;;;70.87;;
355;SDS011;62514;48.112;11.566;2024-03-07T00:13:14;332.00;;;68.33;;
355;SDS011;62514;48.112;11.566;2024-03-07T00:15:40;335.10;;;69.37;;
355;SDS011;62514;48.112;11.566;2024-03-07T00:18:06;326.60;;;65.30;;
355;SDS011;62514;48.112;11.566;2024-03-07T00:20:32;324.93;;;66.33;;
355;SDS011;62514;48.112;11.566;2024-03-07T00:22:58;331.50;;;67.30;;
355;SDS011;62514;48.112;11.566;2024-03-07T00:25:24;323.87;;;66.30;;
355;SDS011;62514;48.112;11.566;2024-03-07T00:27:51;327.73;;;65.03;;
355;SDS011;62514;48.112;11.566;2024-03-07T00:30:19;330.00;;;67.00;;
355;SDS011;62514;48.112;11.566;2024-03-07T00:32:45;324.90;;;64.10;;
355;SDS011;62514;48.112;11.566;2024-03-07T00:35:12;331.87;;;69.40;;
355;SDS011;62514;48.112;11.566;2024-03-07T00:37:38;302.70;;;61.70;;
355;SDS011;62514;48.112;11.566;2024-03-07T00:40:04;292.67;;;60.17;;
355;SDS011;62514;48.112;11.566;2024-03-07T00:42:31;303.77;;;63.63;;
355;SDS011;62514;48.112;11.566;2024-03-07T00:44:57;287.33;;;59.50;;
355;SDS011;62514;48.112;11.566;2024-03-07T00:47:23;296.27;;;60.40;;
355;SDS011;62514;48.112;11.566;2024-03-07T00:49:49;300.13;;;60.93;;
355;SDS011;62514;48.112;11.566;2024-03-07T00:52:15;288.83;;;58.40;;
355;SDS011;62514;48.112;11.566;2024-03-07T00:54:42;321.23;;;63.30;;
355;SDS011;62514;48.112;11.566;2024-03-07T00:57:08;326.00;;;65.43;;
355;SDS011;62514;48.112;11.566;2024-03-07T00:59:34;322.27;;;65.10;;
355;SDS011;62514;48.112;11.566;2024-03-07T01:02:01;326.20;;;67.10;;
355;SDS011;62514;48.112;11.566;2024-03-07T01:04:27;326.83;;;66.83;;
355;SDS011;62514;48.112;11.566;2024-03-07T01:06:57;319.60;;;62.23;;
355;SDS011;62514;48.112;11.566;2024-03-07T01:09:23;321.87;;;65.00;;
355;SDS011;62514;48.112;11.566;2024-03-07T01:11:50;320.97;;;63.60;;
355;SDS011;62514;48.112;11.566;2024-03-07T01:14:16;332.90;;;67.10;;
355;SDS011;62514;48.112;11.566;2024-03-07T01:16:42;318.77;;;66.23;;
355;SDS011;62514;48.112;11.566;2024-03-07T01:19:07;330.23;;;66.97;;
355;SDS011;62514;48.112;11.566;2024-03-07T01:21:34;323.67;;;64.53;;
355;SDS011;62514;48.112;11.566;2024-03-07T01:24:00;328.13;;;66.50;;
355;SDS011;62514;48.112;11.566;2024-03-07T01:26:29;322.90;;;65.30;;
355;SDS011;62514;48.112;11.566;2024-03-07T01:28:56;330.47;;;69.60;;
355;SDS011;62514;48.112;11.566;2024-03-07T01:31:23;324.80;;;65.63;;
355;SDS011;62514;48.112;11.566;2024-03-07T01:33:49;334.80;;;69.93;;
355;SDS011;62514;48.112;11.566;2024-03-07T01:36:16;306.00;;;62.13;;
355;SDS011;62514;48.112;11.566;2024-03-07T01:38:42;317.30;;;64.20;;
355;SDS011;62514;48.112;11.566;2024-03-07T01:41:08;335.20;;;65.70;;
355;SDS011;62514;48.112;11.566;2024-03-07T01:43:34;316.57;;;63.20;;
355;SDS011;62514;48.112;11.566;2024-03-07T01:46:00;324.77;;;66.13;;
355;SDS011;62514;48.112;11.566;2024-03-07T01:48:26;323.03;;;66.47;;
355;SDS011;62514;48.112;11.566;2024-03-07T01:51:00;320.30;;;65.67;;
355;SDS011;62514;48.112;11.566;2024-03-07T01:53:29;335.00;;;68.67;;
355;SDS011;62514;48.112;11.566;2024-03-07T01:55:56;329.00;;;66.97;;
355;SDS011;62514;48.112;11.566;2024-03-07T01:58:23;335.57;;;68.97;;
355;SDS011;62514;48.112;11.566;2024-03-07T02:00:49;329.43;;;68.60;;
355;SDS011;62514;48.112;11.566;2024-03-07T02:03:16;327.27;;;66.97;;
355;SDS011;62514;48.112;11.566;2024-03-07T02:05:42;333.43;;;70.37;;
355;SDS011;62514;48.112;11.566;2024-03-07T02:08:09;321.67;;;64.33;;
355;SDS011;62514;48.112;11.566;2024-03-07T02:10:35;325.97;;;67.50;;
355;SDS011;62514;48.112;11.566;2024-03-07T02:13:01;326.70;;;67.43;;
355;SDS011;62514;48.112;11.566;2024-03-07T02:15:28;325.50;;;68.40;;
355;SDS011;62514;48.112;11.566;2024-03-07T02:17:54;323.47;;;66.83;;
355;SDS011;62514;48.112;11.566;2024-03-07T02:20:20;326.77;;;65.93;;
355;SDS011;62514;48.112;11.566;2024-03-07T02:22:47;327.37;;;68.17;;
355;SDS011;62514;48.112;11.566;2024-03-07T02:25:13;328.93;;;66.50;;
355;SDS011;62514;48.112;11.566;2024-03-07T02:27:41;312.97;;;63.40;;
355;SDS011;62514;48.112;11.566;2024-03-07T02:30:07;328.77;;;67.20;;
355;SDS011;62514;48.112;11.566;2024-03-07T02:32:34;324.57;;;65.93;;
355;SDS011;62514;48.112;11.566;2024-03-07T02:35:02;328.50;;;68.53;;
355;SDS011;62514;48.112;11.566;2024-03-07T02:37:29;328.27;;;67.47;;
355;SDS011;62514;48.112;11.566;2024-03-07T02:39:55;330.60;;;67.63;;
355;SDS011;62514;48.112;11.566;2024-03-07T02:42:21;331.60;;;68.23;;
355;SDS011;62514;48.112;11.566;2024-03-07T02:44:47;334.37;;;70.87;;
355;SDS011;62514;48.112;11.566;2024-03-07T02:47:13;328.23;;;67.10;;
355;SDS011;62514;48.112;11.566;2024-03-07T02:49:39;329.17;;;66.67;;
355;SDS011;62514;48.112;11.566;2024-03-07T02:52:05;330.30;;;65.67;;
355;SDS011;62514;48.112;11.566;2024-03-07T02:54:33;344.03;;;73.87;;
355;SDS011;62514;48.112;11.566;2024-03-07T02:56:59;332.17;;;67.10;;
355;SDS011;62514;48.112;11.566;2024-03-07T02:59:26;332.17;;;67.60;;
355;SDS011;62514;48.112;11.566;2024-03-07T03:01:52;337.70;;;69.07;;
355;SDS011;62514;48.112;11.566;2024-03-07T03:04:18;333.63;;;68.47;;
355;SDS011;62514;48.112;11.566;2024-03-07T03:06:44;334.17;;;65.60;;
355;SDS011;62514;48.112;11.566;2024-03-07T03:09:11;320.27;;;63.93;;
355;SDS011;62514;48.112;11.566;2024-03-07T03:11:43;333.20;;;68.77;;
355;SDS011;62514;48.112;11.566;2024-03-07T03:14:14;338.50;;;68.07;;
355;SDS011;62514;48.112;11.566;2024-03-07T03:16:41;333.63;;;69.83;;
355;SDS011;62514;48.112;11.566;2024-03-07T03:19:08;331.70;;;66.10;;
355;SDS011;62514;48.112;11.566;2024-03-07T03:21:34;336.23;;;69.70;;
355;SDS011;62514;48.112;11.566;2024-03-07T03:24:01;340.57;;;71.70;;
355;SDS011;62514;48.112;11.566;2024-03-07T03:26:28;339.67;;;69.67;;
355;SDS011;62514;48.112;11.566;2024-03-07T03:28:54;332.63;;;64.90;;
355;SDS011;62514;48.112;11.566;2024-03-07T03:31:20;340.60;;;68.87;;
355;SDS011;62514;48.112;11.566;2024-03-07T03:33:45;333.87;;;67.60;;
355;SDS011;62514;48.112;11.566;2024-03-07T03:36:11;336.97;;;69.90;;
355;SDS011;62514;48.112;11.566;2024-03-07T03:38:39;337.63;;;67.33;;
355;SDS011;62514;48.112;11.566;2024-03-07T03:41:06;336.70;;;69.33;;
355;SDS011;62514;48.112;11.566;2024-03-07T03:43:32;333.40;;;68.83;;
355;SDS011;62514;48.112;11.566;2024-03-07T03:45:58;334.17;;;68.80;;
355;SDS011;62514;48.112;11.566;2024-03-07T03:48:24;337.63;;;70.37;;
355;SDS011;62514;48.112;11.566;2024-03-07T03:50:50;340.50;;;71.10;;
355;SDS011;62514;48.112;11.566;2024-03-07T03:53:16;336.50;;;70.90;;
355;SDS011;62514;48.112;11.566;2024-03-07T03:55:43;336.60;;;69.93;;
355;SDS011;62514;48.112;11.566;2024-03-07T03:58:29;331.90;;;68.03;;
355;SDS011;62514;48.112;11.566;2024-03-07T04:00:54;335.17;;;71.93;;
355;SDS011;62514;48.112;11.566;2024-03-07T04:03:20;332.50;;;69.30;;
355;SDS011;62514;48.112;11.566;2024-03-07T04:05:46;329.53;;;67.50;;
355;SDS011;62514;48.112;11.566;2024-03-07T04:08:12;331.47;;;66.93;;
355;SDS011;62514;48.112;11.566;2024-03-07T04:10:39;336.47;;;69.33;;
355;SDS011;62514;48.112;11.566;2024-03-07T04:13:05;333.50;;;71.80;;
355;SDS011;62514;48.112;11.566;2024-03-07T04:15:31;328.50;;;66.20;;
355;SDS011;62514;48.112;11.566;2024-03-07T04:17:58;333.27;;;70.67;;
355;SDS011;62514;48.112;11.566;2024-03-07T04:20:23;337.27;;;70.70;;
355;SDS011;62514;48.112;11.566;2024-03-07T04:22:50;331.50;;;67.77;;
355;SDS011;62514;48.112;11.566;2024-03-07T04:25:16;339.47;;;69.60;;
355;SDS011;62514;48.112;11.566;2024-03-07T04:27:42;320.43;;;66.30;;
355;SDS011;62514;48.112;11.566;2024-03-07T04:30:08;334.33;;;69.20;;
355;SDS011;62514;48.112;11.566;2024-03-07T04:32:37;344.27;;;72.10;;
355;SDS011;62514;48.112;11.566;2024-03-07T04:35:04;323.97;;;65.87;;
355;SDS011;62514;48.112;11.566;2024-03-07T04:37:41;340.73;;;75.00;;
355;SDS011;62514;48.112;11.566;2024-03-07T04:40:08;324.70;;;68.60;;
355;SDS011;62514;48.112;11.566;2024-03-07T04:42:44;338.33;;;68.23;;
355;SDS011;62514;48.112;11.566;2024-03-07T04:45:13;321.47;;;65.60;;
355;SDS011;62514;48.112;11.566;2024-03-07T04:47:40;339.37;;;73.30;;
355;SDS011;62514;48.112;11.566;2024-03-07T04:50:13;325.93;;;65.77;;
355;SDS011;62514;48.112;11.566;2024-03-07T04:52:42;341.83;;;70.50;;
355;SDS011;62514;48.112;11.566;2024-03-07T04:55:09;322.53;;;68.27;;
355;SDS011;62514;48.112;11.566;2024-03-07T04:57:38;338.23;;;70.30;;
355;SDS011;62514;48.112;11.566;2024-03-07T05:00:07;332.40;;;69.03;;
355;SDS011;62514;48.112;11.566;2024-03-07T05:02:39;333.20;;;68.57;;
355;SDS011;62514;48.112;11.566;2024-03-07T05:05:09;332.37;;;68.00;;
355;SDS011;62514;48.112;11.566;2024-03-07T05:07:35;331.60;;;69.43;;
355;SDS011;62514;48.112;11.566;2024-03-07T05:10:04;318.33;;;65.40;;
355;SDS011;62514;48.112;11.566;2024-03-07T05:12:32;328.90;;;67.43;;
355;SDS011;62514;48.112;11.566;2024-03-07T05:14:58;314.83;;;64.63;;
355;SDS011;62514;48.112;11.566;2024-03-07T05:17:25;334.80;;;69.50;;
355;SDS011;62514;48.112;11.566;2024-03-07T05:19:51;335.70;;;71.93;;
355;SDS011;62514;48.112;11.566;2024-03-07T05:22:17;333.03;;;71.70;;
355;SDS011;62514;48.112;11.566;2024-03-07T05:24:45;331.97;;;70.00;;
355;SDS011;62514;48.112;11.566;2024-03-07T05:27:11;336.87;;;67.47;;
355;SDS011;62514;48.112;11.566;2024-03-07T05:29:38;332.77;;;67.23;;
355;SDS011;62514;48.112;11.566;2024-03-07T05:32:23;319.23;;;64.83;;
355;SDS011;62514;48.112;11.566;2024-03-07T05:34:53;324.83;;;67.63;;
355;SDS011;62514;48.112;11.566;2024-03-07T05:37:19;333.87;;;71.23;;
355;SDS011;62514;48.112;11.566;2024-03-07T05:39:49;328.20;;;69.30;;
355;SDS011;62514;48.112;11.566;2024-03-07T05:42:15;328.50;;;66.17;;
355;SDS011;62514;48.112;11.566;2024-03-07T05:44:41;320.90;;;67.27;;
355;SDS011;62514;48.112;11.566;2024-03-07T05:47:07;337.20;;;70.13;;
355;SDS011;62514;48.112;11.566;2024-03-07T05:49:34;325.07;;;65.63;;
355;SDS011;62514;48.112;11.566;2024-03-07T05:52:02;333.33;;;72.60;;
355;SDS011;62514;48.112;11.566;2024-03-07T05:54:29;328.17;;;67.57;;
355;SDS011;62514;48.112;11.566;2024-03-07T05:56:55;329.60;;;68.90;;
355;SDS011;62514;48.112;11.566;2024-03-07T05:59:21;330.50;;;68.60;;
355;SDS011;62514;48.112;11.566;2024-03-07T06:01:48;330.63;;;71.57;;
355;SDS011;62514;48.112;11.566;2024-03-07T06:04:14;327.50;;;70.23;;
355;SDS011;62514;48.112;11.566;2024-03-07T06:06:40;330.80;;;68.87;;
355;SDS011;62514;48.112;11.566;2024-03-07T06:09:10;326.10;;;70.40;;
355;SDS011;62514;48.112;11.566;2024-03-07T06:11:39;333.47;;;71.40;;
355;SDS011;62514;48.112;11.566;2024-03-07T06:14:09;331.73;;;71.50;;
355;SDS011;62514;48.112;11.566;2024-03-07T06:16:38;320.30;;;65.10;;
355;SDS011;62514;48.112;11.566;2024-03-07T06:19:05;326.03;;;67.10;;
355;SDS011;62514;48.112;11.566;2024-03-07T06:21:32;328.13;;;67.97;;
355;SDS011;62514;48.112;11.566;2024-03-07T06:24:00;327.40;;;68.20;;
355;SDS011;62514;48.112;11.566;2024-03-07T06:26:29;323.33;;;67.00;;
355;SDS011;62514;48.112;11.566;2024-03-07T06:29:16;333.17;;;72.27;;
355;SDS011;62514;48.112;11.566;2024-03-07T06:31:43;327.27;;;66.10;;
355;SDS011;62514;48.112;11.566;2024-03-07T06:34:13;326.07;;;69.97;;
355;SDS011;62514;48.112;11.566;2024-03-07T06:36:39;328.97;;;68.30;;
355;SDS011;62514;48.112;11.566;2024-03-07T06:39:08;328.77;;;68.93;;
355;SDS011;62514;48.112;11.566;2024-03-07T06:41:37;319.63;;;67.93;;
355;SDS011;62514;48.112;11.566;2024-03-07T06:44:04;319.07;;;67.77;;
355;SDS011;62514;48.112;11.566;2024-03-07T06:46:30;326.60;;;69.50;;
355;SDS011;62514;48.112;11.566;2024-03-07T06:48:59;321.40;;;65.93;;
355;SDS011;62514;48.112;11.566;2024-03-07T06:51:25;342.00;;;73.37;;
355;SDS011;62514;48.112;11.566;2024-03-07T06:53:51;323.50;;;66.43;;
355;SDS011;62514;48.112;11.566;2024-03-07T06:56:17;324.90;;;66.87;;
355;SDS011;62514;48.112;11.566;2024-03-07T06:58:43;327.83;;;68.03;;
355;SDS011;62514;48.112;11.566;2024-03-07T07:01:13;322.80;;;65.57;;
355;SDS011;62514;48.112;11.566;2024-03-07T07:03:41;328.87;;;71.20;;
355;SDS011;62514;48.112;11.566;2024-03-07T07:06:08;321.83;;;66.63;;
355;SDS011;62514;48.112;11.566;2024-03-07T07:08:35;316.20;;;64.70;;
355;SDS011;62514;48.112;11.566;2024-03-07T07:11:02;322.47;;;64.93;;
355;SDS011;62514;48.112;11.566;2024-03-07T07:13:29;326.37;;;67.47;;
355;SDS011;62514;48.112;11.566;2024-03-07T07:15:55;328.90;;;67.07;;
355;SDS011;62514;48.112;11.566;2024-03-07T07:18:21;327.50;;;65.40;;
355;SDS011;62514;48.112;11.566;2024-03-07T07:20:49;331.00;;;69.00;;
355;SDS011;62514;48.112;11.566;2024-03-07T07:23:17;326.77;;;65.83;;
355;SDS011;62514;48.112;11.566;2024-03-07T07:25:44;344.10;;;75.00;;
355;SDS011;62514;48.112;11.566;2024-03-07T07:28:10;322.77;;;65.30;;
355;SDS011;62514;48.112;11.566;2024-03-07T07:30:36;325.80;;;68.40;;
355;SDS011;62514;48.112;11.566;2024-03-07T07:33:02;332.40;;;72.57;;
355;SDS011;62514;48.112;11.566;2024-03-07T07:35:29;324.20;;;66.17;;
355;SDS011;62514;48.112;11.566;2024-03-07T07:37:55;331.13;;;68.97;;
355;SDS011;62514;48.112;11.566;2024-03-07T07:40:21;338.13;;;73.47;;
355;SDS011;62514;48.112;11.566;2024-03-07T07:42:50;340.13;;;72.33;;
355;SDS011;62514;48.112;11.566;2024-03-07T07:45:18;331.87;;;69.20;;
355;SDS011;62514;48.112;11.566;2024-03-07T07:47:47;335.80;;;68.30;;
355;SDS011;62514;48.112;11.566;2024-03-07T07:50:15;337.87;;;69.87;;
355;SDS011;62514;48.112;11.566;2024-03-07T07:52:44;327.27;;;68.13;;
355;SDS011;62514;48.112;11.566;2024-03-07T07:55:15;330.10;;;70.70;;
355;SDS011;62514;48.112;11.566;2024-03-07T07:57:45;324.47;;;68.83;;
355;SDS011;62514;48.112;11.566;2024-03-07T08:00:14;347.67;;;74.57;;
355;SDS011;62514;48.112;11.566;2024-03-07T08:02:52;329.17;;;66.80;;
355;SDS011;62514;48.112;11.566;2024-03-07T08:07:59;344.80;;;77.00;;
355;SDS011;62514;48.112;11.566;2024-03-07T08:10:28;335.00;;;70.33;;
355;SDS011;62514;48.112;11.566;2024-03-07T08:12:55;336.70;;;72.27;;
355;SDS011;62514;48.112;11.566;2024-03-07T08:15:21;372.20;;;70.43;;
355;SDS011;62514;48.112;11.566;2024-03-07T08:17:48;337.53;;;71.47;;
355;SDS011;62514;48.112;11.566;2024-03-07T08:20:17;326.40;;;65.97;;
355;SDS011;62514;48.112;11.566;2024-03-07T08:22:46;341.07;;;71.30;;
355;SDS011;62514;48.112;11.566;2024-03-07T08:25:13;326.80;;;66.17;;
355;SDS011;62514;48.112;11.566;2024-03-07T08:27:40;354.03;;;72.90;;
355;SDS011;62514;48.112;11.566;2024-03-07T08:30:11;338.63;;;67.97;;
355;SDS011;62514;48.112;11.566;2024-03-07T08:32:44;335.90;;;69.70;;
355;SDS011;62514;48.112;11.566;2024-03-07T08:35:11;339.33;;;68.33;;
355;SDS011;62514;48.112;11.566;2024-03-07T08:37:38;342.87;;;69.73;;
355;SDS011;62514;48.112;11.566;2024-03-07T08:40:05;338.67;;;68.87;;
355;SDS011;62514;48.112;11.566;2024-03-07T08:42:33;338.20;;;69.37;;
355;SDS011;62514;48.112;11.566;2024-03-07T08:45:00;333.50;;;66.77;;
355;SDS011;62514;48.112;11.566;2024-03-07T08:47:33;331.63;;;66.87;;
355;SDS011;62514;48.112;11.566;2024-03-07T08:50:00;331.83;;;66.07;;
355;SDS011;62514;48.112;11.566;2024-03-07T08:52:26;329.03;;;67.03;;
355;SDS011;62514;48.112;11.566;2024-03-07T08:54:53;340.70;;;69.50;;
355;SDS011;62514;48.112;11.566;2024-03-07T08:57:20;345.17;;;69.03;;
355;SDS011;62514;48.112;11.566;2024-03-07T08:59:47;338.53;;;68.23;;
355;SDS011;62514;48.112;11.566;2024-03-07T09:02:14;356.33;;;75.77;;
355;SDS011;62514;48.112;11.566;2024-03-07T09:04:40;354.87;;;78.23;;
355;SDS011;62514;48.112;11.566;2024-03-07T09:07:07;344.10;;;69.53;;
355;SDS011;62514;48.112;11.566;2024-03-07T09:09:34;339.33;;;69.50;;
355;SDS011;62514;48.112;11.566;2024-03-07T09:12:00;352.83;;;73.70;;
355;SDS011;62514;48.112;11.566;2024-03-07T09:14:27;347.77;;;72.47;;
355;SDS011;62514;48.112;11.566;2024-03-07T09:16:54;366.90;;;75.07;;
355;SDS011;62514;48.112;11.566;2024-03-07T09:19:19;343.07;;;69.33;;
355;SDS011;62514;48.112;11.566;2024-03-07T09:21:52;360.37;;;71.47;;
355;SDS011;62514;48.112;11.566;2024-03-07T09:24:19;355.33;;;71.33;;
355;SDS011;62514;48.112;11.566;2024-03-07T09:26:50;349.27;;;70.50;;
355;SDS011;62514;48.112;11.566;2024-03-07T09:29:17;344.20;;;69.40;;
355;SDS011;62514;48.112;11.566;2024-03-07T09:31:44;343.10;;;70.60;;
355;SDS011;62514;48.112;11.566;2024-03-07T09:34:12;344.60;;;70.17;;
355;SDS011;62514;48.112;11.566;2024-03-07T09:36:38;336.33;;;67.67;;
355;SDS011;62514;48.112;11.566;2024-03-07T09:39:07;359.83;;;73.67;;
355;SDS011;62514;48.112;11.566;2024-03-07T09:41:34;348.57;;;71.77;;
355;SDS011;62514;48.112;11.566;2024-03-07T09:44:01;344.53;;;69.27;;
355;SDS011;62514;48.112;11.566;2024-03-07T09:46:27;349.20;;;72.20;;
355;SDS011;62514;48.112;11.566;2024-03-07T09:48:54;357.77;;;73.13;;
355;SDS011;62514;48.112;11.566;2024-03-07T09:51:21;358.50;;;73.77;;
355;SDS011;62514;48.112;11.566;2024-03-07T09:53:49;372.07;;;76.63;;
355;SDS011;62514;48.112;11.566;2024-03-07T09:56:17;364.30;;;75.80;;
355;SDS011;62514;48.112;11.566;2024-03-07T09:58:48;357.93;;;74.07;;
355;SDS011;62514;48.112;11.566;2024-03-07T10:01:22;356.53;;;72.03;;
355;SDS011;62514;48.112;11.566;2024-03-07T10:03:58;353.60;;;72.10;;
355;SDS011;62514;48.112;11.566;2024-03-07T10:06:28;360.37;;;71.73;;
355;SDS011;62514;48.112;11.566;2024-03-07T10:08:56;351.47;;;71.93;;
355;SDS011;62514;48.112;11.566;2024-03-07T10:11:24;366.30;;;71.83;;
355;SDS011;62514;48.112;11.566;2024-03-07T10:13:50;356.13;;;75.03;;
355;SDS011;62514;48.112;11.566;2024-03-07T10:16:17;363.90;;;73.13;;
355;SDS011;62514;48.112;11.566;2024-03-07T10:18:44;356.90;;;72.27;;
355;SDS011;62514;48.112;11.566;2024-03-07T10:21:14;356.50;;;72.80;;
355;SDS011;62514;48.112;11.566;2024-03-07T10:23:42;358.43;;;73.70;;
355;SDS011;62514;48.112;11.566;2024-03-07T10:26:08;365.20;;;75.63;;
355;SDS011;62514;48.112;11.566;2024-03-07T10:28:35;353.90;;;71.70;;
355;SDS011;62514;48.112;11.566;2024-03-07T10:31:04;367.57;;;76.30;;
355;SDS011;62514;48.112;11.566;2024-03-07T10:33:37;364.67;;;75.50;;
355;SDS011;62514;48.112;11.566;2024-03-07T10:36:05;366.10;;;75.60;;
355;SDS011;62514;48.112;11.566;2024-03-07T10:38:36;373.70;;;73.97;;
355;SDS011;62514;48.112;11.566;2024-03-07T10:41:03;364.77;;;75.67;;
355;SDS011;62514;48.112;11.566;2024-03-07T10:43:35;356.93;;;74.10;;
355;SDS011;62514;48.112;11.566;2024-03-07T10:46:04;360.10;;;75.80;;
355;SDS011;62514;48.112;11.566;2024-03-07T10:48:36;361.33;;;75.00;;
355;SDS011;62514;48.112;11.566;2024-03-07T10:59:25;359.33;;;72.77;;
355;SDS011;62514;48.112;11.566;2024-03-07T11:04:46;350.37;;;70.00;;
355;SDS011;62514;48.112;11.566;2024-03-07T11:07:14;348.07;;;69.67;;
355;SDS011;62514;48.112;11.566;2024-03-07T11:09:40;377.57;;;77.40;;
355;SDS011;62514;48.112;11.566;2024-03-07T11:12:08;370.77;;;77.17;;
355;SDS011;62514;48.112;11.566;2024-03-07T11:14:37;374.47;;;79.23;;
355;SDS011;62514;48.112;11.566;2024-03-07T11:17:04;372.93;;;75.53;;
355;SDS011;62514;48.112;11.566;2024-03-07T11:19:31;366.27;;;72.83;;
355;SDS011;62514;48.112;11.566;2024-03-07T11:22:02;374.67;;;77.30;;
355;SDS011;62514;48.112;11.566;2024-03-07T11:24:41;374.50;;;79.13;;
355;SDS011;62514;48.112;11.566;2024-03-07T11:27:11;362.70;;;72.27;;
355;SDS011;62514;48.112;11.566;2024-03-07T11:29:51;367.93;;;72.07;;
355;SDS011;62514;48.112;11.566;2024-03-07T11:32:18;372.03;;;75.57;;
355;SDS011;62514;48.112;11.566;2024-03-07T11:34:46;373.03;;;73.17;;
355;SDS011;62514;48.112;11.566;2024-03-07T11:40:42;406.23;;;79.87;;
355;SDS011;62514;48.112;11.566;2024-03-07T11:43:03;409.27;;;85.80;;
355;SDS011;62514;48.112;11.566;2024-03-07T11:45:32;410.13;;;85.30;;
355;SDS011;62514;48.112;11.566;2024-03-07T11:48:04;394.97;;;80.00;;
355;SDS011;62514;48.112;11.566;2024-03-07T11:50:35;409.83;;;89.23;;
355;SDS011;62514;48.112;11.566;2024-03-07T11:53:02;428.47;;;95.27;;
355;SDS011;62514;48.112;11.566;2024-03-07T11:55:31;432.77;;;96.70;;
355;SDS011;62514;48.112;11.566;2024-03-07T11:58:09;430.20;;;97.77;;
355;SDS011;62514;48.112;11.566;2024-03-07T12:00:41;426.00;;;93.87;;
355;SDS011;62514;48.112;11.566;2024-03-07T12:03:13;416.80;;;90.20;;
355;SDS011;62514;48.112;11.566;2024-03-07T12:05:44;431.63;;;95.17;;
355;SDS011;62514;48.112;11.566;2024-03-07T12:08:11;411.10;;;89.00;;
355;SDS011;62514;48.112;11.566;2024-03-07T12:10:37;415.10;;;90.57;;
355;SDS011;62514;48.112;11.566;2024-03-07T12:13:07;402.67;;;85.50;;
355;SDS011;62514;48.112;11.566;2024-03-07T12:15:33;402.43;;;84.60;;
355;SDS011;62514;48.112;11.566;2024-03-07T12:18:00;396.73;;;86.17;;
355;SDS011;62514;48.112;11.566;2024-03-07T12:20:28;401.37;;;85.40;;
355;SDS011;62514;48.112;11.566;2024-03-07T12:23:02;397.93;;;85.17;;
355;SDS011;62514;48.112;11.566;2024-03-07T12:25:31;443.73;;;89.47;;
355;SDS011;62514;48.112;11.566;2024-03-07T12:30:35;406.60;;;86.03;;
355;SDS011;62514;48.112;11.566;2024-03-07T12:33:22;408.67;;;85.10;;
355;SDS011;62514;48.112;11.566;2024-03-07T12:35:51;402.03;;;85.80;;
355;SDS011;62514;48.112;11.566;2024-03-07T12:38:18;392.40;;;81.80;;
355;SDS011;62514;48.112;11.566;2024-03-07T12:40:46;393.40;;;83.30;;
355;SDS011;62514;48.112;11.566;2024-03-07T12:43:19;386.13;;;79.17;;
355;SDS011;62514;48.112;11.566;2024-03-07T12:48:16;388.83;;;80.27;;
355;SDS011;62514;48.112;11.566;2024-03-07T12:50:47;380.07;;;78.03;;
355;SDS011;62514;48.112;11.566;2024-03-07T12:53:19;381.17;;;78.93;;
355;SDS011;62514;48.112;11.566;2024-03-07T12:55:45;378.00;;;76.33;;
355;SDS011;62514;48.112;11.566;2024-03-07T12:58:12;361.00;;;72.23;;
355;SDS011;62514;48.112;11.566;2024-03-07T13:00:38;366.03;;;74.07;;
355;SDS011;62514;48.112;11.566;2024-03-07T13:03:07;369.27;;;74.70;;
355;SDS011;62514;48.112;11.566;2024-03-07T13:05:39;368.17;;;74.03;;
355;SDS011;62514;48.112;11.566;2024-03-07T13:08:06;369.63;;;76.83;;
355;SDS011;62514;48.112;11.566;2024-03-07T13:10:44;366.27;;;75.13;;
355;SDS011;62514;48.112;11.566;2024-03-07T13:13:10;368.13;;;75.23;;
355;SDS011;62514;48.112;11.566;2024-03-07T13:15:39;363.57;;;71.80;;
355;SDS011;62514;48.112;11.566;2024-03-07T13:18:08;372.80;;;75.43;;
355;SDS011;62514;48.112;11.566;2024-03-07T13:20:34;378.70;;;76.07;;
355;SDS011;62514;48.112;11.566;2024-03-07T13:23:01;373.17;;;76.93;;
355;SDS011;62514;48.112;11.566;2024-03-07T13:25:28;372.80;;;74.20;;
355;SDS011;62514;48.112;11.566;2024-03-07T13:28:02;366.97;;;72.17;;
355;SDS011;62514;48.112;11.566;2024-03-07T13:30:39;380.50;;;73.20;;
355;SDS011;62514;48.112;11.566;2024-03-07T13:33:06;369.10;;;76.80;;
355;SDS011;62514;48.112;11.566;2024-03-07T13:35:33;360.80;;;72.13;;
355;SDS011;62514;48.112;11.566;2024-03-07T13:37:59;370.33;;;74.37;;
355;SDS011;62514;48.112;11.566;2024-03-07T13:40:25;368.03;;;74.47;;
355;SDS011;62514;48.112;11.566;2024-03-07T13:42:56;368.13;;;76.60;;
355;SDS011;62514;48.112;11.566;2024-03-07T13:45:24;367.43;;;74.20;;
355;SDS011;62514;48.112;11.566;2024-03-07T13:47:54;365.97;;;75.73;;
355;SDS011;62514;48.112;11.566;2024-03-07T13:50:22;368.53;;;76.80;;
355;SDS011;62514;48.112;11.566;2024-03-07T13:52:50;366.23;;;73.93;;
355;SDS011;62514;48.112;11.566;2024-03-07T13:55:54;382.90;;;79.20;;
355;SDS011;62514;48.112;11.566;2024-03-07T14:01:43;369.10;;;73.53;;
355;SDS011;62514;48.112;11.566;2024-03-07T14:07:41;378.77;;;77.80;;
355;SDS011;62514;48.112;11.566;2024-03-07T14:22:31;367.97;;;72.80;;
355;SDS011;62514;48.112;11.566;2024-03-07T14:30:52;371.40;;;78.03;;
355;SDS011;62514;48.112;11.566;2024-03-07T14:33:32;363.60;;;78.30;;
355;SDS011;62514;48.112;11.566;2024-03-07T14:36:15;368.90;;;75.37;;
355;SDS011;62514;48.112;11.566;2024-03-07T14:41:20;363.70;;;75.37;;
355;SDS011;62514;48.112;11.566;2024-03-07T14:44:03;368.07;;;76.63;;
355;SDS011;62514;48.112;11.566;2024-03-07T14:46:32;365.70;;;73.60;;
355;SDS011;62514;48.112;11.566;2024-03-07T14:48:59;365.07;;;76.17;;
355;SDS011;62514;48.112;11.566;2024-03-07T14:51:25;369.40;;;76.57;;
355;SDS011;62514;48.112;11.566;2024-03-07T14:53:51;371.50;;;75.87;;
355;SDS011;62514;48.112;11.566;2024-03-07T14:56:17;363.20;;;73.53;;
355;SDS011;62514;48.112;11.566;2024-03-07T14:58:45;368.67;;;75.17;;
355;SDS011;62514;48.112;11.566;2024-03-07T15:01:12;369.47;;;76.00;;
355;SDS011;62514;48.112;11.566;2024-03-07T15:03:38;357.10;;;72.00;;
355;SDS011;62514;48.112;11.566;2024-03-07T15:06:06;361.57;;;72.80;;
355;SDS011;62514;48.112;11.566;2024-03-07T15:08:35;354.37;;;70.73;;
355;SDS011;62514;48.112;11.566;2024-03-07T15:11:09;352.90;;;68.13;;
355;SDS011;62514;48.112;11.566;2024-03-07T15:13:46;357.70;;;71.90;;
355;SDS011;62514;48.112;11.566;2024-03-07T15:16:13;359.73;;;71.37;;